Time;durP1;ratioP1;P1;durP2;ratioP2;P2;SDS_P1;SDS_P2;PMS_P1;PMS_P2;Temp;Humidity;BMP_temperature;BMP_pressure;BME280_temperature;BME280_humidity;BME280_pressure;Samples;Min_cycle;Max_cycle;Signal;HPM_P1;HPM_P2
2023/04/14 00:00:12;;;;;;;2.80;2.30;;;;;;;11.71;49.95;92562.72;516775;28;1730;-51
2023/04/14 00:00:27;;;;;;;2.80;2.10;;;;;;;11.68;49.93;92556.31;517555;28;1015;-50
2023/04/14 00:00:43;;;;;;;3.60;2.22;;;;;;;11.74;49.84;92564.31;516660;28;944;-50
2023/04/14 00:00:58;;;;;;;3.27;2.20;;;;;;;11.76;49.53;92565.19;517530;28;867;-53
2023/04/14 00:01:15;;;;;;;2.93;2.20;;;;;;;11.77;49.00;92554.88;517058;28;1094;-51
2023/04/14 00:01:31;;;;;;;4.03;2.25;;;;;;;11.74;48.60;92561.53;515942;28;897;-50
2023/04/14 00:01:47;;;;;;;4.17;2.00;;;;;;;11.69;48.38;92560.53;517690;28;781;-53
2023/04/14 00:02:03;;;;;;;2.45;1.92;;;;;;;11.69;48.21;92557.78;517370;28;1190;-50
2023/04/14 00:02:18;;;;;;;3.70;2.30;;;;;;;11.70;48.17;92556.44;517623;28;917;-49
2023/04/14 00:02:34;;;;;;;3.67;2.20;;;;;;;11.68;48.75;92567.38;516455;28;1412;-50
2023/04/14 00:02:50;;;;;;;2.83;2.10;;;;;;;11.62;49.44;92553.06;517392;28;1230;-51
2023/04/14 00:03:06;;;;;;;3.77;2.10;;;;;;;11.62;49.44;92560.63;516281;28;1746;-51
2023/04/14 00:03:21;;;;;;;3.75;2.00;;;;;;;11.54;49.34;92558.00;516717;28;887;-50
2023/04/14 00:03:37;;;;;;;3.30;2.00;;;;;;;11.51;49.63;92558.38;516000;28;849;-50
2023/04/14 00:03:52;;;;;;;3.13;2.13;;;;;;;11.53;49.64;92556.50;519087;28;1533;-52
2023/04/14 00:04:08;;;;;;;3.47;2.30;;;;;;;11.55;49.14;92556.66;517552;28;1626;-49
2023/04/14 00:04:23;;;;;;;3.83;2.20;;;;;;;11.58;48.90;92550.00;518457;28;824;-50
2023/04/14 00:04:38;;;;;;;3.63;2.23;;;;;;;11.45;48.94;92533.78;517747;28;903;-50
2023/04/14 00:04:54;;;;;;;3.00;2.20;;;;;;;11.61;48.93;92545.34;518425;28;864;-50
2023/04/14 00:05:09;;;;;;;3.00;2.10;;;;;;;11.61;48.62;92545.34;519021;28;1108;-52
2023/04/14 00:05:31;;;;;;;2.53;2.10;;;;;;;11.63;48.65;92548.97;519358;28;1496;-50
2023/04/14 00:05:46;;;;;;;2.80;1.90;;;;;;;11.66;48.61;92555.38;516308;28;1910;-51
2023/04/14 00:06:02;;;;;;;3.10;1.70;;;;;;;11.66;48.40;92542.31;515874;28;857;-49
2023/04/14 00:06:18;;;;;;;4.13;2.10;;;;;;;11.72;48.58;92551.06;515541;28;1127;-50
2023/04/14 00:06:33;;;;;;;3.45;2.20;;;;;;;11.75;48.25;92552.69;517633;28;900;-51
2023/04/14 00:06:50;;;;;;;3.33;2.23;;;;;;;11.77;48.00;92557.63;515762;28;1380;-50
2023/04/14 00:07:05;;;;;;;3.58;2.28;;;;;;;11.76;47.68;92556.91;517053;28;1268;-50
2023/04/14 00:07:21;;;;;;;2.73;2.20;;;;;;;11.72;47.64;92551.06;517459;28;892;-51
2023/04/14 00:07:36;;;;;;;2.53;2.08;;;;;;;11.63;48.22;92554.50;517510;28;805;-49
2023/04/14 00:07:51;;;;;;;2.37;2.00;;;;;;;11.56;48.70;92552.59;517380;28;847;-49
2023/04/14 00:08:07;;;;;;;2.57;2.00;;;;;;;11.53;49.05;92553.75;517400;28;849;-51
2023/04/14 00:08:22;;;;;;;2.60;2.00;;;;;;;11.55;48.74;92551.13;517537;28;824;-51
2023/04/14 00:08:38;;;;;;;2.93;2.10;;;;;;;11.56;48.75;92547.06;517465;28;816;-51
2023/04/14 00:08:53;;;;;;;3.15;2.35;;;;;;;11.59;48.56;92553.47;517529;28;980;-51
2023/04/14 00:09:09;;;;;;;2.93;2.37;;;;;;;11.62;48.54;92555.81;517641;28;856;-51
2023/04/14 00:09:25;;;;;;;2.72;2.28;;;;;;;11.66;48.36;92549.84;516347;28;913;-50
2023/04/14 00:09:41;;;;;;;2.58;2.38;;;;;;;11.69;48.11;92557.78;516704;28;1376;-50
2023/04/14 00:09:56;;;;;;;3.30;2.40;;;;;;;11.73;48.28;92560.09;517548;28;864;-50
2023/04/14 00:10:12;;;;;;;4.00;2.47;;;;;;;11.74;48.31;92554.00;516301;28;1700;-50
2023/04/14 00:10:27;;;;;;;4.17;2.50;;;;;;;11.76;48.02;92551.38;516341;28;863;-50
2023/04/14 00:10:42;;;;;;;3.63;2.33;;;;;;;11.79;48.01;92555.03;516592;28;1106;-51
2023/04/14 00:10:58;;;;;;;3.10;2.20;;;;;;;11.76;48.85;92545.84;517546;28;789;-53
2023/04/14 00:11:13;;;;;;;3.90;2.33;;;;;;;11.77;49.10;92554.88;516462;28;798;-51
2023/04/14 00:11:28;;;;;;;4.20;2.33;;;;;;;11.73;49.23;92541.47;517195;28;876;-51
2023/04/14 00:11:44;;;;;;;3.93;2.40;;;;;;;11.77;49.63;92547.31;517467;28;869;-51
2023/04/14 00:12:00;;;;;;;3.33;2.30;;;;;;;11.63;49.84;92531.69;516635;28;1548;-51
2023/04/14 00:12:15;;;;;;;6.07;2.25;;;;;;;11.76;49.77;92551.38;515509;28;1151;-50
2023/04/14 00:12:31;;;;;;;8.47;2.53;;;;;;;11.76;50.05;92545.13;516944;28;904;-51
2023/04/14 00:12:46;;;;;;;11.43;2.55;;;;;;;11.71;50.06;92544.09;515365;28;1711;-52
2023/04/14 00:13:02;;;;;;;15.97;2.60;;;;;;;11.75;49.91;92547.16;515828;28;975;-51
2023/04/14 00:13:17;;;;;;;15.67;3.20;;;;;;;11.78;49.70;92551.53;516071;28;861;-52
2023/04/14 00:13:33;;;;;;;12.95;3.70;;;;;;;11.80;49.71;92554.44;517506;28;1040;-50
2023/04/14 00:13:48;;;;;;;7.23;2.93;;;;;;;11.81;49.27;92553.13;517273;28;1150;-50
2023/04/14 00:14:04;;;;;;;4.72;2.28;;;;;;;11.75;48.92;92552.69;517633;28;799;-51
2023/04/14 00:14:20;;;;;;;4.13;2.17;;;;;;;11.74;48.76;92548.47;517697;28;924;-50
2023/04/14 00:14:35;;;;;;;3.10;2.30;;;;;;;11.74;49.31;92553.25;517408;28;1399;-48
2023/04/14 00:14:50;;;;;;;4.43;2.38;;;;;;;11.74;49.26;92544.97;516064;28;852;-50
2023/04/14 00:15:06;;;;;;;4.63;2.47;;;;;;;11.78;49.35;92553.56;516194;28;1314;-50
2023/04/14 00:15:22;;;;;;;3.28;2.60;;;;;;;11.80;49.00;92550.97;516449;28;1501;-50
2023/04/14 00:15:40;;;;;;;3.57;2.27;;;;;;;11.81;49.11;92550.38;516336;28;1436;-52
2023/04/14 00:15:55;;;;;;;5.43;2.27;;;;;;;11.84;49.15;92545.72;517471;28;1578;-47
2023/04/14 00:16:11;;;;;;;6.68;2.28;;;;;;;11.84;49.49;92557.53;517658;28;954;-51
2023/04/14 00:16:26;;;;;;;5.50;2.10;;;;;;;11.85;49.28;92558.22;517378;28;985;-50
2023/04/14 00:16:42;;;;;;;4.28;2.00;;;;;;;11.76;49.10;92540.31;518421;28;1455;-49
2023/04/14 00:16:58;;;;;;;3.10;2.05;;;;;;;11.82;49.35;92560.16;516976;28;1277;-48
2023/04/14 00:17:14;;;;;;;4.75;2.10;;;;;;;11.82;49.52;92549.09;518413;28;1432;-50
2023/04/14 00:17:29;;;;;;;4.53;1.93;;;;;;;11.67;48.83;92538.28;519069;28;1288;-51
2023/04/14 00:17:45;;;;;;;3.05;1.90;;;;;;;11.83;48.46;92555.31;517453;28;915;-49
2023/04/14 00:18:00;;;;;;;3.90;1.83;;;;;;;11.82;48.10;92551.09;517550;28;853;-49
2023/04/14 00:18:16;;;;;;;3.55;1.80;;;;;;;11.78;47.65;92553.56;517261;28;1731;-50
2023/04/14 00:18:31;;;;;;;3.33;2.03;;;;;;;11.74;48.61;92554.00;517495;28;818;-50
2023/04/14 00:18:46;;;;;;;4.10;2.30;;;;;;;11.74;48.97;92551.22;515855;28;787;-50
2023/04/14 00:19:02;;;;;;;3.90;2.15;;;;;;;11.74;48.87;92554.00;517852;28;1258;-50
2023/04/14 00:19:17;;;;;;;2.70;2.10;;;;;;;11.73;48.64;92546.28;518336;28;1281;-50
2023/04/14 00:19:32;;;;;;;2.67;2.10;;;;;;;11.69;48.26;92546.72;517786;28;840;-49
2023/04/14 00:19:48;;;;;;;3.67;2.10;;;;;;;11.68;48.24;92553.53;517171;28;961;-48
2023/04/14 00:20:04;;;;;;;3.80;2.10;;;;;;;11.69;47.99;92546.72;517739;28;821;-50
2023/04/14 00:20:19;;;;;;;2.47;1.90;;;;;;;11.72;48.10;92544.81;516857;28;844;-50
2023/04/14 00:20:35;;;;;;;1.95;1.80;;;;;;;11.74;48.10;92547.72;517758;28;880;-51
2023/04/14 00:20:50;;;;;;;2.20;2.00;;;;;;;11.76;48.37;92543.06;517624;28;1072;-49
2023/04/14 00:21:06;;;;;;;2.40;2.20;;;;;;;11.75;47.73;92544.41;517726;28;832;-49
2023/04/14 00:21:21;;;;;;;3.22;2.13;;;;;;;11.75;47.58;92543.66;516759;28;951;-51
2023/04/14 00:21:36;;;;;;;3.77;2.00;;;;;;;11.73;47.82;92547.00;517830;28;934;-50
2023/04/14 00:21:52;;;;;;;3.03;2.08;;;;;;;11.73;47.85;92543.50;516907;28;1651;-50
2023/04/14 00:22:07;;;;;;;3.03;2.17;;;;;;;11.60;49.00;92539.09;516648;28;886;-49
2023/04/14 00:22:23;;;;;;;4.32;2.20;;;;;;;11.50;48.72;92549.38;517233;28;888;-50
2023/04/14 00:22:38;;;;;;;4.30;2.20;;;;;;;11.49;49.00;92547.91;515638;28;829;-49
2023/04/14 00:22:54;;;;;;;2.60;2.13;;;;;;;11.50;49.50;92545.91;516647;28;2378;-52
2023/04/14 00:23:09;;;;;;;2.63;2.17;;;;;;;11.52;49.43;92548.81;517675;28;849;-50
2023/04/14 00:23:25;;;;;;;3.00;2.20;;;;;;;11.53;49.06;92548.22;517811;28;828;-51
2023/04/14 00:23:40;;;;;;;3.28;2.03;;;;;;;11.54;48.00;92549.69;517071;28;817;-50
2023/04/14 00:23:56;;;;;;;3.50;1.90;;;;;;;11.54;48.06;92546.94;516996;28;774;-51
2023/04/14 00:24:11;;;;;;;8.73;2.00;;;;;;;11.54;48.09;92544.16;517447;28;1420;-49
2023/04/14 00:24:26;;;;;;;8.80;2.10;;;;;;;11.56;48.14;92540.81;517735;28;793;-51
2023/04/14 00:24:42;;;;;;;2.53;1.80;;;;;;;11.59;48.11;92539.66;517464;28;876;-50
2023/04/14 00:24:57;;;;;;;2.00;1.80;;;;;;;11.62;48.10;92541.25;517211;28;809;-50
2023/04/14 00:25:13;;;;;;;2.20;2.00;;;;;;;11.65;48.20;92549.13;516220;28;1687;-49
2023/04/14 00:25:28;;;;;;;5.83;2.23;;;;;;;11.66;48.80;92545.06;516432;28;765;-49
2023/04/14 00:25:44;;;;;;;7.73;2.10;;;;;;;11.65;48.91;92535.31;516051;28;1918;-49
2023/04/14 00:25:59;;;;;;;5.15;2.03;;;;;;;11.66;48.96;92542.31;516848;28;864;-49
2023/04/14 00:26:15;;;;;;;4.53;2.30;;;;;;;11.67;49.41;92538.28;515513;28;908;-50
2023/04/14 00:26:32;;;;;;;3.17;2.17;;;;;;;11.68;49.54;92544.50;517525;28;818;-50
2023/04/14 00:26:47;;;;;;;3.60;2.28;;;;;;;11.70;49.40;92542.63;517339;28;996;-52
2023/04/14 00:27:02;;;;;;;4.20;2.47;;;;;;;11.71;48.97;92537.84;517356;28;1332;-49
2023/04/14 00:27:18;;;;;;;3.77;2.17;;;;;;;11.72;48.68;92533.75;516451;28;872;-49
2023/04/14 00:27:33;;;;;;;3.35;1.83;;;;;;;11.71;48.58;92532.31;517640;28;861;-51
2023/04/14 00:27:49;;;;;;;2.77;1.93;;;;;;;11.65;48.54;92527.00;516402;28;1746;-49
2023/04/14 00:28:04;;;;;;;3.08;2.40;;;;;;;11.75;48.61;92538.88;515501;28;1146;-52
2023/04/14 00:28:20;;;;;;;2.67;2.20;;;;;;;11.74;48.51;92531.88;516582;28;1440;-52
2023/04/14 00:28:36;;;;;;;2.27;1.87;;;;;;;11.66;48.07;92520.19;515542;28;855;-52
2023/04/14 00:28:51;;;;;;;2.80;1.80;;;;;;;11.71;47.93;92532.31;516156;28;918;-53
2023/04/14 00:29:06;;;;;;;2.63;1.87;;;;;;;11.70;48.30;92525.31;517484;28;855;-52
2023/04/14 00:29:22;;;;;;;2.63;1.80;;;;;;;11.71;48.28;92537.84;517446;28;778;-53
2023/04/14 00:29:38;;;;;;;2.50;1.83;;;;;;;11.71;48.85;92533.03;517019;28;1702;-51
2023/04/14 00:29:53;;;;;;;2.92;2.00;;;;;;;11.66;48.26;92531.25;515459;28;1142;-51
2023/04/14 00:30:09;;;;;;;6.70;2.20;;;;;;;11.57;48.15;92529.16;515356;28;792;-53
2023/04/14 00:30:24;;;;;;;6.72;2.17;;;;;;;11.46;48.39;92524.19;516495;28;847;-52
2023/04/14 00:30:40;;;;;;;8.47;2.40;;;;;;;11.52;48.45;92535.69;517366;28;1275;-52
2023/04/14 00:30:55;;;;;;;7.43;2.22;;;;;;;11.49;48.23;92528.56;517024;28;1138;-50
2023/04/14 00:31:11;;;;;;;2.93;2.03;;;;;;;11.52;48.54;92535.69;517222;28;844;-52
2023/04/14 00:31:26;;;;;;;3.05;2.03;;;;;;;11.50;48.12;92538.31;516369;28;1009;-51
2023/04/14 00:31:42;;;;;;;3.80;2.00;;;;;;;11.42;48.68;92529.41;515658;28;1265;-52
2023/04/14 00:31:57;;;;;;;4.00;2.05;;;;;;;11.39;49.20;92536.09;515815;28;1607;-51
2023/04/14 00:32:13;;;;;;;3.53;1.97;;;;;;;11.33;49.89;92532.88;516658;28;1314;-52
2023/04/14 00:32:28;;;;;;;3.25;2.00;;;;;;;11.37;49.54;92538.69;516788;28;1360;-51
2023/04/14 00:32:44;;;;;;;2.37;1.90;;;;;;;11.40;49.19;92538.28;515532;28;778;-51
2023/04/14 00:32:59;;;;;;;2.00;1.80;;;;;;;11.42;49.45;92538.44;515424;28;980;-52
2023/04/14 00:33:15;;;;;;;2.30;1.88;;;;;;;11.43;49.51;92528.81;516422;28;1666;-51
2023/04/14 00:33:30;;;;;;;2.93;1.90;;;;;;;11.42;49.81;92532.19;517580;28;938;-51
2023/04/14 00:33:46;;;;;;;2.95;2.08;;;;;;;11.42;49.40;92534.94;517538;28;872;-51
2023/04/14 00:34:01;;;;;;;3.30;2.20;;;;;;;11.45;49.03;92536.56;516799;28;1290;-49
2023/04/14 00:34:17;;;;;;;5.87;2.20;;;;;;;11.43;49.34;92536.41;515590;28;1072;-53
2023/04/14 00:34:32;;;;;;;8.40;2.33;;;;;;;11.38;49.40;92526.34;515443;28;1702;-51
2023/04/14 00:34:48;;;;;;;8.73;2.90;;;;;;;11.40;49.43;92532.03;515861;28;1014;-51
2023/04/14 00:35:04;;;;;;;6.83;2.60;;;;;;;11.42;49.21;92532.19;517561;28;825;-53
2023/04/14 00:35:19;;;;;;;5.05;2.03;;;;;;;11.48;49.08;92534.69;517474;28;939;-52
2023/04/14 00:35:35;;;;;;;7.15;2.10;;;;;;;11.50;48.83;92530.00;517111;28;821;-51
2023/04/14 00:35:50;;;;;;;7.13;2.10;;;;;;;11.51;48.93;92533.50;515979;28;798;-52
2023/04/14 00:36:06;;;;;;;3.35;2.10;;;;;;;11.50;49.18;92526.53;517491;28;1601;-53
2023/04/14 00:36:23;;;;;;;3.80;2.10;;;;;;;11.50;49.08;92534.84;517227;28;1620;-55
2023/04/14 00:36:38;;;;;;;3.20;1.90;;;;;;;11.53;48.90;92528.13;515857;28;814;-51
2023/04/14 00:36:53;;;;;;;2.72;1.90;;;;;;;11.51;48.74;92530.75;517328;28;1242;-52
2023/04/14 00:37:09;;;;;;;4.30;2.10;;;;;;;11.50;48.62;92529.31;517107;28;1457;-53
2023/04/14 00:37:25;;;;;;;4.87;2.20;;;;;;;11.51;48.88;92530.75;516878;28;1273;-52
2023/04/14 00:37:40;;;;;;;3.70;2.05;;;;;;;11.52;49.16;92530.16;517201;28;1579;-52
2023/04/14 00:37:57;;;;;;;2.72;1.90;;;;;;;11.50;48.73;92532.06;517475;28;892;-51
2023/04/14 00:38:12;;;;;;;2.55;1.83;;;;;;;11.48;48.86;92527.09;517440;28;1097;-55
2023/04/14 00:38:28;;;;;;;3.42;1.90;;;;;;;11.41;49.07;92522.44;517499;28;895;-50
2023/04/14 00:38:43;;;;;;;4.90;2.00;;;;;;;11.47;49.39;92528.41;516558;28;1003;-51
2023/04/14 00:38:59;;;;;;;4.93;1.93;;;;;;;11.50;49.43;92526.53;516090;28;868;-51
2023/04/14 00:39:14;;;;;;;4.65;1.98;;;;;;;11.51;49.21;92531.50;515597;28;892;-52
2023/04/14 00:39:30;;;;;;;4.63;1.90;;;;;;;11.54;49.08;92527.56;515882;28;953;-53
2023/04/14 00:39:45;;;;;;;5.25;2.13;;;;;;;11.53;49.55;92531.63;515372;28;1773;-52
2023/04/14 00:40:01;;;;;;;3.83;2.13;;;;;;;11.54;49.16;92529.59;517593;28;1114;-53
2023/04/14 00:40:16;;;;;;;2.33;1.90;;;;;;;11.45;49.08;92533.78;517639;28;1087;-51
2023/04/14 00:40:32;;;;;;;3.13;1.95;;;;;;;11.43;49.31;92534.34;516820;28;1584;-51
2023/04/14 00:40:47;;;;;;;3.50;1.97;;;;;;;11.44;49.12;92535.81;518183;28;1376;-52
2023/04/14 00:41:03;;;;;;;4.97;2.10;;;;;;;11.48;48.84;92532.63;516379;28;868;-51
2023/04/14 00:41:18;;;;;;;4.68;2.10;;;;;;;11.52;48.74;92532.22;515758;28;1173;-51
2023/04/14 00:41:34;;;;;;;4.40;2.10;;;;;;;11.54;48.68;92541.41;516689;28;841;-51
2023/04/14 00:41:49;;;;;;;4.72;2.00;;;;;;;11.58;48.96;92540.97;516171;28;1115;-52
2023/04/14 00:42:05;;;;;;;2.80;1.87;;;;;;;11.60;49.24;92535.59;517493;28;858;-51
2023/04/14 00:42:20;;;;;;;2.42;2.00;;;;;;;11.61;49.25;92535.00;517581;28;1337;-52
2023/04/14 00:42:45;;;;;;;5.13;2.20;;;;;;;11.60;49.19;92519.72;517434;28;869;-52
2023/04/14 00:43:01;;;;;;;6.63;2.40;;;;;;;11.69;48.86;92538.41;517529;28;938;-52
2023/04/14 00:43:18;;;;;;;3.30;2.17;;;;;;;11.61;49.01;92518.41;517677;28;1087;-52
2023/04/14 00:43:34;;;;;;;3.78;1.95;;;;;;;11.68;48.71;92528.66;516737;28;1540;-51
2023/04/14 00:43:53;;;;;;;3.63;1.90;;;;;;;11.55;48.40;92515.19;516432;28;825;-51
2023/04/14 00:44:08;;;;;;;3.25;1.80;;;;;;;11.70;48.36;92531.56;516404;28;821;-52
2023/04/14 00:44:24;;;;;;;3.03;1.83;;;;;;;11.71;48.97;92532.31;516712;28;880;-53
2023/04/14 00:44:39;;;;;;;3.37;1.90;;;;;;;11.71;49.40;92535.06;516967;28;1254;-52
2023/04/14 00:44:55;;;;;;;3.77;2.00;;;;;;;11.70;49.80;92539.88;518316;28;1238;-52
2023/04/14 00:45:11;;;;;;;3.42;2.13;;;;;;;11.70;49.68;92534.34;517619;28;888;-53
2023/04/14 00:45:27;;;;;;;2.88;1.98;;;;;;;11.71;48.74;92541.34;517424;28;1424;-52
2023/04/14 00:45:44;;;;;;;3.22;1.92;;;;;;;11.73;48.35;92535.22;516627;28;1074;-51
2023/04/14 00:46:00;;;;;;;3.20;2.05;;;;;;;11.76;48.16;92539.59;517265;28;841;-52
2023/04/14 00:46:15;;;;;;;3.78;1.98;;;;;;;11.71;48.04;92541.34;517126;28;1548;-53
2023/04/14 00:46:31;;;;;;;3.40;1.90;;;;;;;11.63;48.16;92532.38;515478;28;1037;-51
2023/04/14 00:46:46;;;;;;;2.63;1.83;;;;;;;11.61;48.54;92534.28;516662;28;1239;-53
2023/04/14 00:47:02;;;;;;;2.93;1.90;;;;;;;11.57;48.59;92531.19;516484;28;1699;-52
2023/04/14 00:47:18;;;;;;;2.88;1.90;;;;;;;11.56;48.82;92538.78;515777;28;870;-51
2023/04/14 00:47:33;;;;;;;2.90;1.85;;;;;;;11.57;48.75;92533.97;518143;28;775;-52
2023/04/14 00:47:49;;;;;;;4.53;2.00;;;;;;;11.59;48.69;92536.88;518922;28;1103;-53
2023/04/14 00:48:05;;;;;;;3.92;2.10;;;;;;;11.45;49.29;92514.44;518182;28;1443;-52
2023/04/14 00:48:20;;;;;;;4.22;2.00;;;;;;;11.52;48.90;92532.94;517676;28;1404;-54
2023/04/14 00:48:36;;;;;;;4.30;2.00;;;;;;;11.57;48.25;92531.94;519273;28;1400;-53
2023/04/14 00:48:53;;;;;;;2.50;1.90;;;;;;;11.59;47.99;92529.31;516667;28;1349;-53
2023/04/14 00:49:08;;;;;;;2.35;1.88;;;;;;;11.62;48.05;92536.47;514682;28;1205;-51
2023/04/14 00:49:24;;;;;;;3.10;1.90;;;;;;;11.56;47.75;92519.44;513161;28;1068;-51
2023/04/14 00:49:39;;;;;;;4.00;2.10;;;;;;;11.70;48.00;92536.38;511229;29;1777;-52
2023/04/14 00:49:55;;;;;;;2.67;1.97;;;;;;;11.71;48.35;92538.56;511285;28;875;-52
2023/04/14 00:50:11;;;;;;;1.90;1.70;;;;;;;11.73;48.32;92535.22;510672;28;1148;-51
2023/04/14 00:50:26;;;;;;;3.08;1.90;;;;;;;11.69;47.74;92527.34;511756;28;869;-50
2023/04/14 00:50:42;;;;;;;3.60;1.90;;;;;;;11.73;47.97;92535.22;511359;29;786;-51
2023/04/14 00:50:57;;;;;;;2.80;2.10;;;;;;;11.70;47.99;92531.56;511444;28;1080;-52
2023/04/14 00:51:13;;;;;;;3.27;2.20;;;;;;;11.71;48.16;92537.84;513823;28;789;-51
2023/04/14 00:51:28;;;;;;;3.20;1.93;;;;;;;11.68;48.36;92534.19;515615;28;936;-51
2023/04/14 00:51:44;;;;;;;3.63;1.70;;;;;;;11.65;48.27;92537.34;517293;28;848;-52
2023/04/14 00:52:00;;;;;;;2.92;1.60;;;;;;;11.62;48.67;92535.75;517403;28;877;-52
2023/04/14 00:52:15;;;;;;;2.60;1.55;;;;;;;11.61;48.21;92529.47;516911;28;1746;-52
2023/04/14 00:52:31;;;;;;;7.83;1.70;;;;;;;11.60;47.92;92530.78;516690;28;821;-51
2023/04/14 00:52:48;;;;;;;7.78;1.83;;;;;;;11.53;48.05;92528.13;516729;28;935;-51
2023/04/14 00:53:03;;;;;;;5.65;1.90;;;;;;;11.53;47.66;92531.63;517415;28;951;-51
2023/04/14 00:53:20;;;;;;;4.47;1.93;;;;;;;11.56;48.24;92538.06;517195;28;970;-51
2023/04/14 00:53:35;;;;;;;2.55;2.08;;;;;;;11.56;48.19;92530.50;517811;28;1745;-51
2023/04/14 00:53:51;;;;;;;3.15;2.30;;;;;;;11.58;47.49;92535.44;517602;28;1091;-51
2023/04/14 00:54:07;;;;;;;3.15;2.17;;;;;;;11.55;47.64;92531.06;515748;28;943;-53
2023/04/14 00:54:23;;;;;;;2.55;1.88;;;;;;;11.43;47.61;92522.59;513520;28;1183;-51
2023/04/14 00:54:40;;;;;;;2.03;1.77;;;;;;;11.56;47.68;92533.25;513726;28;780;-51
2023/04/14 00:54:57;;;;;;;2.65;2.00;;;;;;;11.56;47.76;92533.25;514387;28;1104;-51
2023/04/14 00:55:14;;;;;;;4.57;2.10;;;;;;;11.59;47.71;92537.63;515796;28;886;-50
2023/04/14 00:55:30;;;;;;;3.65;1.80;;;;;;;11.59;47.79;92532.09;515513;28;901;-51
2023/04/14 00:55:45;;;;;;;3.00;1.80;;;;;;;11.41;47.56;92511.38;513666;28;1356;-51
2023/04/14 00:56:01;;;;;;;2.95;1.80;;;;;;;11.65;47.41;92534.59;514874;28;1016;-51
2023/04/14 00:56:17;;;;;;;3.53;1.77;;;;;;;11.67;47.40;92538.28;515798;28;874;-51
2023/04/14 00:56:32;;;;;;;3.83;1.70;;;;;;;11.41;47.34;92500.31;515755;28;886;-52
2023/04/14 00:56:52;;;;;;;5.53;1.70;;;;;;;11.63;46.97;92537.91;515735;28;844;-52
2023/04/14 00:57:08;;;;;;;3.83;1.95;;;;;;;11.59;47.46;92534.84;516901;28;967;-57
2023/04/14 00:57:25;;;;;;;3.78;2.20;;;;;;;11.59;47.32;92534.84;517361;28;1106;-51
2023/04/14 00:57:41;;;;;;;4.13;2.03;;;;;;;11.62;47.04;92530.94;517770;28;959;-51
2023/04/14 00:57:56;;;;;;;3.00;1.90;;;;;;;11.64;47.05;92539.38;517290;28;1039;-51
2023/04/14 00:58:12;;;;;;;2.65;1.75;;;;;;;11.62;47.26;92536.47;516020;28;817;-51
2023/04/14 00:58:27;;;;;;;2.40;1.70;;;;;;;11.63;47.51;92532.38;515848;28;874;-50
2023/04/14 00:58:43;;;;;;;2.80;1.90;;;;;;;11.66;47.32;92533.28;517481;28;1111;-51
2023/04/14 00:59:01;;;;;;;2.67;2.00;;;;;;;11.49;47.36;92502.97;517506;28;1376;-52
2023/04/14 00:59:17;;;;;;;2.25;2.00;;;;;;;11.67;47.42;92529.97;518306;28;1415;-52
2023/04/14 00:59:32;;;;;;;2.10;1.90;;;;;;;11.68;47.59;92527.91;517958;28;912;-54
2023/04/14 00:59:48;;;;;;;2.10;1.90;;;;;;;11.62;47.58;92514.34;518223;28;1360;-51
2023/04/14 01:00:06;;;;;;;2.10;1.80;;;;;;;11.60;47.53;92519.00;516428;28;1005;-52
2023/04/14 01:00:22;;;;;;;1.92;1.70;;;;;;;11.65;47.71;92532.53;517532;28;1050;-52
2023/04/14 01:00:37;;;;;;;2.47;1.80;;;;;;;11.67;47.24;92541.03;517807;28;923;-51
2023/04/14 01:00:54;;;;;;;2.50;1.93;;;;;;;11.67;47.29;92538.28;516366;28;1639;-50
2023/04/14 01:01:09;;;;;;;3.25;1.73;;;;;;;11.41;47.08;92497.56;517176;28;1213;-50
2023/04/14 01:01:27;;;;;;;2.92;1.67;;;;;;;11.60;47.08;92527.28;516990;28;805;-52
2023/04/14 01:01:43;;;;;;;3.17;1.73;;;;;;;11.58;46.96;92522.34;517582;28;1120;-53
2023/04/14 01:02:00;;;;;;;2.97;1.90;;;;;;;11.61;47.06;92531.53;517653;28;1181;-52
2023/04/14 01:02:16;;;;;;;1.90;1.73;;;;;;;11.65;47.26;92529.78;517822;28;1567;-51
2023/04/14 01:02:31;;;;;;;2.63;1.80;;;;;;;11.67;47.01;92526.47;518889;28;818;-50
2023/04/14 01:02:47;;;;;;;3.65;2.03;;;;;;;11.53;47.51;92517.81;519787;28;860;-50
2023/04/14 01:03:02;;;;;;;2.87;2.00;;;;;;;11.62;47.38;92530.94;517900;28;1048;-51
2023/04/14 01:03:20;;;;;;;4.28;2.00;;;;;;;11.66;47.33;92533.28;518108;28;805;-51
2023/04/14 01:03:36;;;;;;;4.50;1.98;;;;;;;11.70;47.38;92531.56;516889;28;1471;-52
2023/04/14 01:03:52;;;;;;;2.40;1.87;;;;;;;11.74;47.10;92533.91;517620;28;867;-54
2023/04/14 01:04:07;;;;;;;1.70;1.60;;;;;;;11.75;46.91;92530.56;517895;28;765;-54
2023/04/14 01:04:23;;;;;;;2.07;1.80;;;;;;;11.77;46.71;92529.97;517684;28;1765;-53
2023/04/14 01:04:39;;;;;;;2.78;2.00;;;;;;;11.77;46.68;92533.47;515797;28;900;-53
2023/04/14 01:04:54;;;;;;;3.35;1.83;;;;;;;11.77;46.72;92527.97;515871;28;838;-56
2023/04/14 01:05:11;;;;;;;3.80;1.93;;;;;;;11.79;47.73;92532.91;515813;28;1183;-55
2023/04/14 01:05:26;;;;;;;3.30;2.10;;;;;;;11.79;47.77;92525.34;515885;28;868;-53
2023/04/14 01:05:42;;;;;;;2.53;1.85;;;;;;;11.84;47.47;92529.88;516510;28;832;-52
2023/04/14 01:05:57;;;;;;;4.63;1.87;;;;;;;11.83;47.91;92528.41;517869;28;1914;-53
2023/04/14 01:06:13;;;;;;;7.97;2.23;;;;;;;11.83;47.97;92531.16;517186;28;1480;-53
2023/04/14 01:06:28;;;;;;;5.15;2.17;;;;;;;11.61;47.92;92499.06;516684;28;947;-54
2023/04/14 01:06:44;;;;;;;2.80;1.80;;;;;;;11.84;47.29;92538.16;517501;28;1182;-53
2023/04/14 01:07:00;;;;;;;3.63;1.80;;;;;;;11.78;47.52;92537.00;516418;28;898;-54
2023/04/14 01:07:16;;;;;;;2.75;1.80;;;;;;;11.72;47.91;92531.72;517896;28;937;-53
2023/04/14 01:07:31;;;;;;;2.00;1.80;;;;;;;11.75;47.88;92533.34;515972;28;1368;-52
2023/04/14 01:07:47;;;;;;;2.20;1.90;;;;;;;11.74;47.56;92536.66;517845;28;1148;-51
2023/04/14 01:08:03;;;;;;;2.45;1.77;;;;;;;11.71;47.35;92529.53;517924;28;805;-52
2023/04/14 01:08:18;;;;;;;3.88;1.90;;;;;;;11.66;47.52;92516.69;517856;28;821;-52
2023/04/14 01:08:34;;;;;;;4.10;1.83;;;;;;;11.75;47.29;92527.81;515915;28;940;-53
2023/04/14 01:08:50;;;;;;;2.90;1.50;;;;;;;11.75;47.24;92533.34;516336;28;841;-54
2023/04/14 01:09:05;;;;;;;3.42;1.60;;;;;;;11.71;48.17;92527.50;517058;28;1600;-53
2023/04/14 01:09:21;;;;;;;3.13;1.80;;;;;;;11.69;48.31;92534.91;516226;28;875;-52
2023/04/14 01:09:36;;;;;;;2.40;2.00;;;;;;;11.66;47.93;92531.25;515898;28;865;-54
2023/04/14 01:09:53;;;;;;;2.93;2.07;;;;;;;11.69;47.31;92532.88;516437;28;1043;-52
2023/04/14 01:10:09;;;;;;;3.25;2.10;;;;;;;11.71;47.37;92535.81;517807;28;892;-54
2023/04/14 01:10:30;;;;;;;3.70;2.20;;;;;;;11.72;47.32;92530.97;517851;28;1318;-55
2023/04/14 01:11:06;;;;;;;2.47;1.98;;;;;;;11.76;47.18;92539.59;515816;28;955;-54
2023/04/14 01:11:48;;;;;;;2.45;1.77;;;;;;;11.76;46.83;92529.25;514507;28;958;-54
2023/04/14 01:12:20;;;;;;;4.32;2.00;;;;;;;11.71;46.88;92527.50;515322;28;1325;-52
2023/04/14 01:13:05;;;;;;;2.50;1.73;;;;;;;11.76;46.57;92529.25;513498;28;924;-53
2023/04/14 01:13:42;;;;;;;2.80;1.90;;;;;;;11.70;47.04;92531.56;515395;28;1211;-52
2023/04/14 01:14:12;;;;;;;3.78;2.00;;;;;;;11.69;47.15;92532.16;513486;28;1638;-51
2023/04/14 01:14:44;;;;;;;2.30;1.67;;;;;;;11.72;46.99;92528.94;513413;28;1747;-52
2023/04/14 01:15:27;;;;;;;2.78;1.70;;;;;;;11.82;47.08;92526.97;513401;28;1648;-52
2023/04/14 01:15:47;;;;;;;2.80;1.85;;;;;;;11.76;47.69;92529.25;516716;28;1332;-52
2023/04/14 01:16:29;;;;;;;2.70;1.83;;;;;;;11.72;47.83;92522.69;517553;28;992;-55
2023/04/14 01:16:48;;;;;;;3.10;1.70;;;;;;;11.74;47.54;92528.38;514114;28;1244;-54
2023/04/14 01:17:29;;;;;;;3.45;1.63;;;;;;;11.83;47.12;92517.34;517380;28;1086;-52
2023/04/14 01:18:10;;;;;;;2.42;2.03;;;;;;;11.87;47.06;92520.41;516675;28;1447;-55
2023/04/14 01:19:01;;;;;;;2.58;2.00;;;;;;;11.89;47.02;92520.53;517169;28;1470;-53
2023/04/14 01:19:57;;;;;;;4.15;2.08;;;;;;;11.97;47.44;92523.19;516734;28;2353;-54
2023/04/14 01:20:30;;;;;;;3.73;2.10;;;;;;;11.97;47.06;92512.13;516563;28;1428;-52
2023/04/14 01:20:51;;;;;;;2.60;1.73;;;;;;;12.01;46.93;92524.22;516625;28;818;-52
2023/04/14 01:21:12;;;;;;;3.05;2.13;;;;;;;11.98;47.67;92521.88;516002;28;1057;-51
2023/04/14 01:21:31;;;;;;;2.58;1.95;;;;;;;12.01;47.55;92515.91;517554;28;1159;-55
2023/04/14 01:21:51;;;;;;;4.40;2.20;;;;;;;12.02;47.48;92517.34;513932;28;861;-52
2023/04/14 01:22:09;;;;;;;4.55;3.10;;;;;;;12.06;47.41;92520.41;515755;28;967;-52
2023/04/14 01:22:29;;;;;;;4.72;3.00;;;;;;;12.08;47.40;92517.09;515840;28;865;-52
2023/04/14 01:23:05;;;;;;;3.85;2.13;;;;;;;12.10;46.96;92520.00;515755;28;1111;-53